createdAt,value
2023-09-14T00:00:27.312Z,1020.83
2023-09-14T00:01:27.367Z,1020.82
2023-09-14T00:02:27.200Z,1020.85
2023-09-14T00:03:27.240Z,1020.82
2023-09-14T00:04:27.296Z,1020.89
2023-09-14T00:05:27.144Z,1020.90
2023-09-14T00:06:27.122Z,1020.92
2023-09-14T00:07:27.233Z,1020.91
2023-09-14T00:08:27.107Z,1020.93
2023-09-14T00:09:27.124Z,1020.93
2023-09-14T00:10:27.073Z,1020.93
2023-09-14T00:11:27.089Z,1020.89
2023-09-14T00:12:27.065Z,1020.93
2023-09-14T00:13:27.066Z,1020.90
2023-09-14T00:14:27.009Z,1020.88
2023-09-14T00:15:27.045Z,1020.86
2023-09-14T00:16:27.019Z,1020.87
2023-09-14T00:17:26.973Z,1020.87
2023-09-14T00:18:27.043Z,1020.87
2023-09-14T00:20:26.943Z,1020.79
2023-09-14T00:21:26.900Z,1020.80
2023-09-14T00:22:26.892Z,1020.77
2023-09-14T00:23:26.948Z,1020.75
2023-09-14T00:24:26.887Z,1020.76
2023-09-14T00:25:26.898Z,1020.77
2023-09-14T00:26:26.888Z,1020.71
2023-09-14T00:27:26.837Z,1020.73
2023-09-14T00:28:26.833Z,1020.70
2023-09-14T00:29:26.828Z,1020.69
2023-09-14T00:30:26.795Z,1020.70
2023-09-14T00:31:26.814Z,1020.72
2023-09-14T00:32:26.830Z,1020.71
2023-09-14T00:33:26.777Z,1020.72
2023-09-14T00:34:26.751Z,1020.71
2023-09-14T00:35:26.772Z,1020.74
2023-09-14T00:36:26.738Z,1020.72
2023-09-14T00:37:26.697Z,1020.73
2023-09-14T00:38:26.696Z,1020.73
2023-09-14T00:39:26.672Z,1020.70
2023-09-14T00:40:26.692Z,1020.76
2023-09-14T00:41:26.679Z,1020.74
2023-09-14T00:42:26.625Z,1020.72
2023-09-14T00:43:26.676Z,1020.74
2023-09-14T00:44:26.642Z,1020.69
2023-09-14T00:45:26.602Z,1020.68
2023-09-14T00:46:27.900Z,1020.68
2023-09-14T00:47:26.587Z,1020.69
2023-09-14T00:48:26.566Z,1020.70
2023-09-14T00:49:26.560Z,1020.70
2023-09-14T00:50:26.515Z,1020.68
2023-09-14T00:51:26.508Z,1020.68
2023-09-14T00:52:26.494Z,1020.65
2023-09-14T00:53:26.462Z,1020.68
2023-09-14T00:54:26.497Z,1020.68
2023-09-14T00:55:26.490Z,1020.67
2023-09-14T00:56:26.414Z,1020.68
2023-09-14T00:57:26.430Z,1020.73
2023-09-14T00:58:26.412Z,1020.72
2023-09-14T00:59:26.396Z,1020.75
2023-09-14T01:00:26.424Z,1020.74
2023-09-14T01:01:26.373Z,1020.70
2023-09-14T01:02:26.407Z,1020.75
2023-09-14T01:03:26.473Z,1020.70
2023-09-14T01:04:26.345Z,1020.71
2023-09-14T01:05:26.330Z,1020.70
2023-09-14T01:06:26.279Z,1020.68
2023-09-14T01:07:26.369Z,1020.65
2023-09-14T01:08:26.255Z,1020.67
2023-09-14T01:09:26.231Z,1020.64
2023-09-14T01:10:26.234Z,1020.63
2023-09-14T01:11:26.220Z,1020.65
2023-09-14T01:12:26.196Z,1020.64
2023-09-14T01:13:26.199Z,1020.66
2023-09-14T01:14:26.151Z,1020.69
2023-09-14T01:15:26.132Z,1020.72
2023-09-14T01:16:26.158Z,1020.74
2023-09-14T01:17:26.179Z,1020.70
2023-09-14T01:18:26.120Z,1020.75
2023-09-14T01:19:26.090Z,1020.76
2023-09-14T01:20:26.103Z,1020.72
2023-09-14T01:21:26.056Z,1020.71
2023-09-14T01:22:26.125Z,1020.76
2023-09-14T01:23:26.085Z,1020.78
2023-09-14T01:24:26.040Z,1020.81
2023-09-14T01:25:26.065Z,1020.85
2023-09-14T01:26:25.981Z,1020.85
2023-09-14T01:27:26.012Z,1020.86
2023-09-14T01:28:25.991Z,1020.88
2023-09-14T01:29:25.980Z,1020.89
2023-09-14T01:30:25.943Z,1020.87
2023-09-14T01:31:25.913Z,1020.92
2023-09-14T01:32:25.927Z,1020.89
2023-09-14T01:33:25.932Z,1020.93
2023-09-14T01:34:26.109Z,1020.91
2023-09-14T01:35:25.856Z,1020.89
2023-09-14T01:36:25.860Z,1020.86
2023-09-14T01:37:25.830Z,1020.91
2023-09-14T01:38:25.821Z,1020.90
2023-09-14T01:39:25.803Z,1020.91
2023-09-14T01:40:25.788Z,1020.94
2023-09-14T01:41:25.811Z,1020.98
2023-09-14T01:42:25.755Z,1020.97
2023-09-14T01:43:25.748Z,1020.96
2023-09-14T01:44:25.775Z,1020.95
2023-09-14T01:45:25.703Z,1020.93
2023-09-14T01:46:25.814Z,1020.92
2023-09-14T01:47:25.710Z,1020.95
2023-09-14T01:48:25.724Z,1020.93
2023-09-14T01:49:25.679Z,1020.94
2023-09-14T01:50:25.675Z,1020.97
2023-09-14T01:51:25.651Z,1020.94
2023-09-14T01:52:25.636Z,1020.96
2023-09-14T01:53:25.654Z,1020.96
2023-09-14T01:54:25.583Z,1020.96
2023-09-14T01:55:25.566Z,1020.95
2023-09-14T01:56:25.577Z,1020.97
2023-09-14T01:57:25.580Z,1020.96
2023-09-14T01:58:25.593Z,1020.98
2023-09-14T01:59:25.533Z,1020.97
2023-09-14T02:00:25.519Z,1020.98
2023-09-14T02:01:25.560Z,1020.96
2023-09-14T02:02:25.478Z,1020.96
2023-09-14T02:03:25.505Z,1020.96
2023-09-14T02:04:25.488Z,1020.96
2023-09-14T02:05:25.503Z,1020.97
2023-09-14T02:06:25.430Z,1020.97
2023-09-14T02:07:25.394Z,1020.97
2023-09-14T02:08:25.457Z,1020.96
2023-09-14T02:09:25.376Z,1020.93
2023-09-14T02:10:25.366Z,1020.95
2023-09-14T02:11:25.365Z,1020.96
2023-09-14T02:12:25.335Z,1020.94
2023-09-14T02:13:25.330Z,1020.91
2023-09-14T02:14:25.292Z,1020.95
2023-09-14T02:15:25.322Z,1020.90
2023-09-14T02:16:25.431Z,1020.92
2023-09-14T02:17:25.302Z,1020.92
2023-09-14T02:18:25.258Z,1020.91
2023-09-14T02:19:25.289Z,1020.86
2023-09-14T02:20:25.225Z,1020.87
2023-09-14T02:21:25.212Z,1020.85
2023-09-14T02:22:25.179Z,1020.86
2023-09-14T02:23:25.208Z,1020.85
2023-09-14T02:24:25.164Z,1020.87
2023-09-14T02:25:25.149Z,1020.87
2023-09-14T02:26:25.141Z,1020.88
2023-09-14T02:27:25.150Z,1020.87
2023-09-14T02:28:25.102Z,1020.89
2023-09-14T02:29:25.097Z,1020.88
2023-09-14T02:30:25.068Z,1020.87
2023-09-14T02:31:25.088Z,1020.89
2023-09-14T02:32:25.029Z,1020.92
2023-09-14T02:33:25.058Z,1020.88
2023-09-14T02:34:25.094Z,1020.87
2023-09-14T02:35:24.990Z,1020.84
2023-09-14T02:36:25.015Z,1020.82
2023-09-14T02:37:24.996Z,1020.86
2023-09-14T02:38:25.003Z,1020.85
2023-09-14T02:39:24.941Z,1020.83
2023-09-14T02:40:24.926Z,1020.86
2023-09-14T02:41:24.904Z,1020.86
2023-09-14T02:42:24.927Z,1020.87
2023-09-14T02:43:24.873Z,1020.84
2023-09-14T02:44:24.925Z,1020.86
2023-09-14T02:45:24.872Z,1020.83
2023-09-14T02:46:24.915Z,1020.83
2023-09-14T02:47:24.818Z,1020.82
2023-09-14T02:48:24.814Z,1020.83
2023-09-14T02:49:24.800Z,1020.85
2023-09-14T02:50:24.883Z,1020.83
2023-09-14T02:51:24.805Z,1020.80
2023-09-14T02:52:24.813Z,1020.83
2023-09-14T02:53:24.753Z,1020.83
2023-09-14T02:54:24.737Z,1020.81
2023-09-14T02:55:24.754Z,1020.83
2023-09-14T02:56:24.706Z,1020.82
2023-09-14T02:57:24.689Z,1020.84
2023-09-14T02:58:24.663Z,1020.82
2023-09-14T02:59:24.717Z,1020.85
2023-09-14T03:00:24.646Z,1020.85
2023-09-14T03:01:24.689Z,1020.84
2023-09-14T03:02:24.648Z,1020.85
2023-09-14T03:03:24.663Z,1020.85
2023-09-14T03:04:24.646Z,1020.89
2023-09-14T03:05:24.558Z,1020.85
2023-09-14T03:06:24.565Z,1020.84
2023-09-14T03:07:25.335Z,1020.84
2023-09-14T03:08:24.545Z,1020.85
2023-09-14T03:09:24.538Z,1020.84
2023-09-14T03:10:24.510Z,1020.85
2023-09-14T03:11:24.493Z,1020.89
2023-09-14T03:12:24.500Z,1020.87
2023-09-14T03:13:24.510Z,1020.91
2023-09-14T03:14:24.438Z,1020.90
2023-09-14T03:15:24.456Z,1020.87
2023-09-14T03:16:24.455Z,1020.89
2023-09-14T03:17:24.380Z,1020.90
2023-09-14T03:18:24.456Z,1020.85
2023-09-14T03:19:24.362Z,1020.90
2023-09-14T03:20:24.351Z,1020.89
2023-09-14T03:21:24.387Z,1020.90
2023-09-14T03:22:24.325Z,1020.90
2023-09-14T03:23:24.286Z,1020.90
2023-09-14T03:24:24.319Z,1020.89
2023-09-14T03:25:24.267Z,1020.94
2023-09-14T03:26:24.279Z,1020.91
2023-09-14T03:27:24.254Z,1020.89
2023-09-14T03:28:24.293Z,1020.87
2023-09-14T03:29:24.271Z,1020.91
2023-09-14T03:30:24.231Z,1020.91
2023-09-14T03:31:24.243Z,1020.92
2023-09-14T03:32:24.185Z,1020.89
2023-09-14T03:33:24.170Z,1020.92
2023-09-14T03:34:24.165Z,1020.94
2023-09-14T03:35:24.157Z,1020.92
2023-09-14T03:36:24.122Z,1020.93
2023-09-14T03:37:24.159Z,1020.95
2023-09-14T03:38:24.118Z,1020.94
2023-09-14T03:39:24.120Z,1020.96
2023-09-14T03:40:24.073Z,1021.00
2023-09-14T03:41:24.040Z,1020.98
2023-09-14T03:42:24.028Z,1020.95
2023-09-14T03:43:24.010Z,1020.96
2023-09-14T03:44:24.025Z,1020.96
2023-09-14T03:45:24.012Z,1020.95
2023-09-14T03:46:24.093Z,1020.97
2023-09-14T03:47:24.103Z,1020.95
2023-09-14T03:48:23.943Z,1020.98
2023-09-14T03:49:23.959Z,1020.93
2023-09-14T03:50:24.022Z,1020.93
2023-09-14T03:51:23.925Z,1020.91
2023-09-14T03:52:23.885Z,1020.87
2023-09-14T03:53:23.947Z,1020.90
2023-09-14T03:54:23.874Z,1020.89
2023-09-14T03:55:23.846Z,1020.88
2023-09-14T03:56:23.848Z,1020.87
2023-09-14T03:57:23.816Z,1020.85
2023-09-14T03:58:23.797Z,1020.89
2023-09-14T03:59:23.801Z,1020.87
2023-09-14T04:00:23.792Z,1020.85
2023-09-14T04:01:23.859Z,1020.87
2023-09-14T04:02:23.750Z,1020.87
2023-09-14T04:03:23.789Z,1020.84
2023-09-14T04:04:23.943Z,1020.85
2023-09-14T04:05:23.725Z,1020.86
2023-09-14T04:06:23.764Z,1020.89
2023-09-14T04:07:23.670Z,1020.89
2023-09-14T04:08:23.667Z,1020.92
2023-09-14T04:09:23.646Z,1020.92
2023-09-14T04:10:23.620Z,1020.89
2023-09-14T04:11:23.635Z,1020.91
2023-09-14T04:12:23.584Z,1020.91
2023-09-14T04:13:24.263Z,1020.93
2023-09-14T04:14:23.584Z,1020.91
2023-09-14T04:15:23.552Z,1020.94
2023-09-14T04:16:23.758Z,1020.94
2023-09-14T04:17:23.554Z,1020.91
2023-09-14T04:18:23.530Z,1020.93
2023-09-14T04:19:23.524Z,1020.93
2023-09-14T04:20:23.481Z,1020.89
2023-09-14T04:21:23.477Z,1020.92
2023-09-14T04:22:23.510Z,1020.90
2023-09-14T04:23:23.439Z,1020.93
2023-09-14T04:24:23.460Z,1020.91
2023-09-14T04:25:23.394Z,1020.93
2023-09-14T04:26:23.410Z,1020.87
2023-09-14T04:27:23.381Z,1020.92
2023-09-14T04:28:23.342Z,1020.88
2023-09-14T04:29:23.331Z,1020.90
2023-09-14T04:30:23.368Z,1020.91
2023-09-14T04:31:23.439Z,1020.95
2023-09-14T04:32:23.286Z,1020.92
2023-09-14T04:33:23.307Z,1020.95
2023-09-14T04:34:23.339Z,1020.93
2023-09-14T04:35:23.277Z,1020.97
2023-09-14T04:36:23.272Z,1020.95
2023-09-14T04:37:23.256Z,1020.97
2023-09-14T04:38:23.189Z,1020.97
2023-09-14T04:39:23.196Z,1020.97
2023-09-14T04:40:23.171Z,1020.93
2023-09-14T04:41:23.176Z,1020.92
2023-09-14T04:42:23.159Z,1020.92
2023-09-14T04:43:23.461Z,1020.92
2023-09-14T04:44:23.129Z,1020.93
2023-09-14T04:45:23.223Z,1020.92
2023-09-14T04:46:23.199Z,1020.92
2023-09-14T04:47:23.130Z,1020.95
2023-09-14T04:48:23.086Z,1020.94
2023-09-14T04:49:23.166Z,1020.94
2023-09-14T04:50:23.058Z,1020.98
2023-09-14T04:51:23.110Z,1020.96
2023-09-14T04:52:23.024Z,1020.95
2023-09-14T04:53:23.070Z,1020.94
2023-09-14T04:54:23.012Z,1020.95
2023-09-14T04:55:23.138Z,1020.97
2023-09-14T04:56:22.981Z,1020.98
2023-09-14T04:57:22.992Z,1020.98
2023-09-14T04:58:26.482Z,1020.96
2023-09-14T04:59:22.967Z,1020.96
2023-09-14T05:00:23.111Z,1020.97
2023-09-14T05:01:23.103Z,1020.97
2023-09-14T05:02:22.988Z,1020.97
2023-09-14T05:03:22.941Z,1020.99
2023-09-14T05:04:23.040Z,1021.01
2023-09-14T05:05:22.837Z,1020.98
2023-09-14T05:06:22.969Z,1021.00
2023-09-14T05:07:22.938Z,1020.96
2023-09-14T05:08:22.859Z,1020.98
2023-09-14T05:09:22.914Z,1020.95
2023-09-14T05:10:22.898Z,1020.97
2023-09-14T05:11:22.771Z,1020.96
2023-09-14T05:12:22.775Z,1021.00
2023-09-14T05:13:22.782Z,1020.98
2023-09-14T05:14:22.806Z,1020.97
2023-09-14T05:15:22.798Z,1020.96
2023-09-14T05:16:22.794Z,1020.98
2023-09-14T05:17:22.765Z,1020.95
2023-09-14T05:18:22.718Z,1020.95
2023-09-14T05:19:22.809Z,1020.96
2023-09-14T05:20:22.794Z,1020.96
2023-09-14T05:21:22.726Z,1020.98
2023-09-14T05:22:22.811Z,1020.97
2023-09-14T05:23:22.594Z,1020.95
2023-09-14T05:24:22.829Z,1020.97
2023-09-14T05:25:22.877Z,1020.92
2023-09-14T05:26:22.646Z,1021.00
2023-09-14T05:27:22.691Z,1020.95
2023-09-14T05:28:22.609Z,1020.94
2023-09-14T05:29:22.544Z,1020.99
2023-09-14T05:30:22.795Z,1020.97
2023-09-14T05:31:22.594Z,1020.97
2023-09-14T05:32:22.568Z,1021.04
2023-09-14T05:33:22.611Z,1020.99
2023-09-14T05:34:22.498Z,1020.98
2023-09-14T05:35:22.585Z,1020.98
2023-09-14T05:36:22.579Z,1020.96
2023-09-14T05:37:22.550Z,1020.95
2023-09-14T05:38:22.720Z,1021.01
2023-09-14T05:39:22.422Z,1020.96
2023-09-14T05:40:22.540Z,1020.99
2023-09-14T05:41:22.433Z,1021.01
2023-09-14T05:42:28.954Z,1020.99
2023-09-14T05:43:22.359Z,1021.06
2023-09-14T05:44:22.291Z,1021.04
2023-09-14T05:45:22.257Z,1021.03
2023-09-14T05:46:22.355Z,1021.06
2023-09-14T05:47:22.364Z,1021.04
2023-09-14T05:48:22.262Z,1021.08
2023-09-14T05:49:22.231Z,1021.07
2023-09-14T05:50:22.174Z,1021.08
2023-09-14T05:51:22.160Z,1021.14
2023-09-14T05:52:22.266Z,1021.14
2023-09-14T05:53:22.151Z,1021.15
2023-09-14T05:54:22.171Z,1021.17
2023-09-14T05:55:22.253Z,1021.21
2023-09-14T05:56:22.158Z,1021.21
2023-09-14T05:57:22.220Z,1021.21
2023-09-14T05:58:22.106Z,1021.23
2023-09-14T05:59:31.888Z,1021.23
2023-09-14T06:00:23.096Z,1021.22
2023-09-14T06:01:22.165Z,1021.18
2023-09-14T06:02:22.042Z,1021.18
2023-09-14T06:03:22.006Z,1021.22
2023-09-14T06:04:22.096Z,1021.22
2023-09-14T06:05:26.050Z,1021.24
2023-09-14T06:06:21.987Z,1021.26
2023-09-14T06:07:21.904Z,1021.26
2023-09-14T06:08:21.933Z,1021.29
2023-09-14T06:09:21.903Z,1021.30
2023-09-14T06:10:22.082Z,1021.31
2023-09-14T06:11:21.929Z,1021.33
2023-09-14T06:12:21.913Z,1021.33
2023-09-14T06:13:22.004Z,1021.33
2023-09-14T06:14:21.824Z,1021.34
2023-09-14T06:15:21.837Z,1021.35
2023-09-14T06:16:21.969Z,1021.34
2023-09-14T06:17:21.846Z,1021.38
2023-09-14T06:18:21.886Z,1021.33
2023-09-14T06:19:21.803Z,1021.33
2023-09-14T06:20:21.820Z,1021.33
2023-09-14T06:21:21.712Z,1021.34
2023-09-14T06:22:21.754Z,1021.35
2023-09-14T06:23:21.736Z,1021.33
2023-09-14T06:24:21.686Z,1021.34
2023-09-14T06:25:21.796Z,1021.33
2023-09-14T06:26:21.640Z,1021.35
2023-09-14T06:27:21.636Z,1021.32
2023-09-14T06:28:21.695Z,1021.34
2023-09-14T06:29:21.616Z,1021.33
2023-09-14T06:30:21.603Z,1021.34
2023-09-14T06:31:21.824Z,1021.38
2023-09-14T06:32:21.565Z,1021.39
2023-09-14T06:33:21.595Z,1021.36
2023-09-14T06:34:21.558Z,1021.41
2023-09-14T06:35:21.505Z,1021.39
2023-09-14T06:36:21.536Z,1021.40
2023-09-14T06:37:21.525Z,1021.38
2023-09-14T06:38:21.527Z,1021.39
2023-09-14T06:39:21.512Z,1021.41
2023-09-14T06:40:21.544Z,1021.37
2023-09-14T06:41:21.469Z,1021.41
2023-09-14T06:42:21.466Z,1021.40
2023-09-14T06:43:21.484Z,1021.41
2023-09-14T06:44:21.382Z,1021.44
2023-09-14T06:45:22.168Z,1021.50
2023-09-14T06:46:21.489Z,1021.45
2023-09-14T06:47:21.382Z,1021.52
2023-09-14T06:48:21.336Z,1021.50
2023-09-14T06:49:21.385Z,1021.48
2023-09-14T06:50:22.483Z,1021.49
2023-09-14T06:51:21.302Z,1021.47
2023-09-14T06:52:21.331Z,1021.48
2023-09-14T06:53:21.312Z,1021.49
2023-09-14T06:54:21.340Z,1021.46
2023-09-14T06:55:21.443Z,1021.47
2023-09-14T06:56:21.236Z,1021.48
2023-09-14T06:57:21.407Z,1021.47
2023-09-14T06:58:21.302Z,1021.45
2023-09-14T06:59:21.173Z,1021.47
2023-09-14T07:00:21.176Z,1021.45
2023-09-14T07:01:21.362Z,1021.49
2023-09-14T07:02:21.184Z,1021.45
2023-09-14T07:03:21.229Z,1021.48
2023-09-14T07:04:21.231Z,1021.48
2023-09-14T07:05:21.295Z,1021.48
2023-09-14T07:06:21.110Z,1021.47
2023-09-14T07:07:21.086Z,1021.47
2023-09-14T07:08:21.072Z,1021.50
2023-09-14T07:09:21.065Z,1021.49
2023-09-14T07:10:21.037Z,1021.50
2023-09-14T07:11:21.036Z,1021.50
2023-09-14T07:12:21.077Z,1021.53
2023-09-14T07:13:21.052Z,1021.52
2023-09-14T07:14:20.984Z,1021.54
2023-09-14T07:15:21.021Z,1021.50
2023-09-14T07:16:21.070Z,1021.47
2023-09-14T07:17:23.032Z,1021.48
2023-09-14T07:18:21.049Z,1021.48
2023-09-14T07:19:20.975Z,1021.47
2023-09-14T07:20:20.900Z,1021.50
2023-09-14T07:21:20.920Z,1021.52
2023-09-14T07:22:20.947Z,1021.54
2023-09-14T07:23:20.884Z,1021.56
2023-09-14T07:24:20.875Z,1021.59
2023-09-14T07:25:20.869Z,1021.56
2023-09-14T07:26:20.812Z,1021.56
2023-09-14T07:27:20.803Z,1021.60
2023-09-14T07:28:20.902Z,1021.56
2023-09-14T07:29:20.797Z,1021.56
2023-09-14T07:30:20.795Z,1021.52
2023-09-14T07:31:20.855Z,1021.57
2023-09-14T07:32:20.791Z,1021.58
2023-09-14T07:33:20.751Z,1021.56
2023-09-14T07:34:20.771Z,1021.55
2023-09-14T07:35:20.763Z,1021.59
2023-09-14T07:36:20.671Z,1021.58
2023-09-14T07:37:20.695Z,1021.58
2023-09-14T07:38:20.672Z,1021.62
2023-09-14T07:39:22.054Z,1021.62
2023-09-14T07:40:20.679Z,1021.64
2023-09-14T07:41:20.624Z,1021.67
2023-09-14T07:42:20.603Z,1021.63
2023-09-14T07:43:20.626Z,1021.68
2023-09-14T07:44:20.616Z,1021.66
2023-09-14T07:45:20.578Z,1021.64
2023-09-14T07:46:20.696Z,1021.67
2023-09-14T07:47:20.602Z,1021.69
2023-09-14T07:48:20.528Z,1021.71
2023-09-14T07:49:20.627Z,1021.72
2023-09-14T07:50:20.523Z,1021.66
2023-09-14T07:51:20.495Z,1021.68
2023-09-14T07:52:20.600Z,1021.70
2023-09-14T07:53:20.459Z,1021.70
2023-09-14T07:54:20.448Z,1021.69
2023-09-14T07:55:20.459Z,1021.71
2023-09-14T07:56:20.449Z,1021.72
2023-09-14T07:57:20.413Z,1021.72
2023-09-14T07:58:20.411Z,1021.72
2023-09-14T07:59:20.372Z,1021.73
2023-09-14T08:00:20.386Z,1021.75
2023-09-14T08:01:20.359Z,1021.72
2023-09-14T08:02:20.351Z,1021.75
2023-09-14T08:03:20.356Z,1021.73
2023-09-14T08:04:20.532Z,1021.73
2023-09-14T08:05:20.442Z,1021.74
2023-09-14T08:06:21.775Z,1021.73
2023-09-14T08:07:20.333Z,1021.71
2023-09-14T08:08:20.271Z,1021.66
2023-09-14T08:09:20.257Z,1021.65
2023-09-14T08:10:20.307Z,1021.69
2023-09-14T08:11:20.246Z,1021.66
2023-09-14T08:12:20.235Z,1021.65
2023-09-14T08:13:20.242Z,1021.68
2023-09-14T08:14:20.199Z,1021.66
2023-09-14T08:15:20.210Z,1021.68
2023-09-14T08:16:20.194Z,1021.68
2023-09-14T08:17:20.156Z,1021.67
2023-09-14T08:18:20.139Z,1021.67
2023-09-14T08:19:20.158Z,1021.65
2023-09-14T08:20:20.131Z,1021.67
2023-09-14T08:21:20.088Z,1021.71
2023-09-14T08:22:20.133Z,1021.70
2023-09-14T08:23:20.477Z,1021.69
2023-09-14T08:24:20.080Z,1021.69
2023-09-14T08:25:20.091Z,1021.68
2023-09-14T08:26:20.003Z,1021.69
2023-09-14T08:27:20.008Z,1021.68
2023-09-14T08:28:20.043Z,1021.64
2023-09-14T08:29:19.989Z,1021.67
2023-09-14T08:30:20.036Z,1021.68
2023-09-14T08:31:20.105Z,1021.68
2023-09-14T08:32:19.990Z,1021.68
2023-09-14T08:33:21.070Z,1021.67
2023-09-14T08:34:19.962Z,1021.68
2023-09-14T08:35:19.917Z,1021.68
2023-09-14T08:36:19.971Z,1021.66
2023-09-14T08:37:19.964Z,1021.67
2023-09-14T08:38:21.764Z,1021.70
2023-09-14T08:39:19.839Z,1021.67
2023-09-14T08:40:19.987Z,1021.69
2023-09-14T08:41:19.822Z,1021.69
2023-09-14T08:42:19.809Z,1021.67
2023-09-14T08:43:20.022Z,1021.66
2023-09-14T08:44:19.771Z,1021.66
2023-09-14T08:45:19.759Z,1021.68
2023-09-14T08:46:19.865Z,1021.65
2023-09-14T08:47:20.537Z,1021.70
2023-09-14T08:48:19.763Z,1021.68
2023-09-14T08:49:19.752Z,1021.72
2023-09-14T08:50:19.749Z,1021.66
2023-09-14T08:51:19.687Z,1021.70
2023-09-14T08:52:19.794Z,1021.68
2023-09-14T08:53:19.682Z,1021.66
2023-09-14T08:54:19.673Z,1021.71
2023-09-14T08:55:19.719Z,1021.69
2023-09-14T08:56:19.918Z,1021.70
2023-09-14T08:57:19.597Z,1021.72
2023-09-14T08:58:19.630Z,1021.69
2023-09-14T08:59:19.623Z,1021.73
2023-09-14T09:00:19.562Z,1021.69
2023-09-14T09:01:19.680Z,1021.74
2023-09-14T09:02:19.644Z,1021.74
2023-09-14T09:03:19.555Z,1021.75
2023-09-14T09:04:19.671Z,1021.75
2023-09-14T09:05:19.520Z,1021.73
2023-09-14T09:06:19.495Z,1021.74
2023-09-14T09:07:19.476Z,1021.74
2023-09-14T09:08:19.459Z,1021.74
2023-09-14T09:09:19.519Z,1021.77
2023-09-14T09:10:19.493Z,1021.69
2023-09-14T09:11:19.436Z,1021.70
2023-09-14T09:12:19.418Z,1021.73
2023-09-14T09:13:19.471Z,1021.70
2023-09-14T09:14:19.395Z,1021.70
2023-09-14T09:15:19.473Z,1021.68
2023-09-14T09:16:19.444Z,1021.68
2023-09-14T09:17:19.360Z,1021.70
2023-09-14T09:18:19.352Z,1021.69
2023-09-14T09:19:19.418Z,1021.70
2023-09-14T09:20:19.370Z,1021.73
2023-09-14T09:21:19.334Z,1021.71
2023-09-14T09:22:19.321Z,1021.72
2023-09-14T09:23:19.304Z,1021.69
2023-09-14T09:24:19.257Z,1021.68
2023-09-14T09:25:19.313Z,1021.66
2023-09-14T09:26:19.250Z,1021.68
2023-09-14T09:27:19.242Z,1021.66
2023-09-14T09:28:19.255Z,1021.68
2023-09-14T09:29:19.233Z,1021.69
2023-09-14T09:30:19.174Z,1021.67
2023-09-14T09:31:19.202Z,1021.65
2023-09-14T09:32:19.148Z,1021.63
2023-09-14T09:33:19.140Z,1021.62
2023-09-14T09:34:19.161Z,1021.62
2023-09-14T09:35:19.104Z,1021.62
2023-09-14T09:36:19.099Z,1021.58
2023-09-14T09:37:19.156Z,1021.58
2023-09-14T09:38:19.053Z,1021.58
2023-09-14T09:39:19.044Z,1021.56
2023-09-14T09:40:19.079Z,1021.60
2023-09-14T09:41:19.096Z,1021.61
2023-09-14T09:42:19.016Z,1021.60
2023-09-14T09:43:19.046Z,1021.60
2023-09-14T09:44:19.031Z,1021.57
2023-09-14T09:45:18.971Z,1021.53
2023-09-14T09:46:18.997Z,1021.52
2023-09-14T09:47:18.996Z,1021.48
2023-09-14T09:48:18.934Z,1021.48
2023-09-14T09:49:19.060Z,1021.48
2023-09-14T09:50:18.917Z,1021.45
2023-09-14T09:51:18.884Z,1021.50
2023-09-14T09:52:18.999Z,1021.47
2023-09-14T09:53:18.998Z,1021.54
2023-09-14T09:54:19.156Z,1021.55
2023-09-14T09:55:18.936Z,1021.52
2023-09-14T09:56:18.810Z,1021.49
2023-09-14T09:57:18.819Z,1021.48
2023-09-14T09:58:19.056Z,1021.51
2023-09-14T09:59:18.787Z,1021.50
2023-09-14T10:00:18.804Z,1021.46
2023-09-14T10:01:18.844Z,1021.47
2023-09-14T10:02:18.725Z,1021.46
2023-09-14T10:03:18.900Z,1021.49
2023-09-14T10:04:18.791Z,1021.45
2023-09-14T10:05:18.765Z,1021.43
2023-09-14T10:06:18.737Z,1021.43
2023-09-14T10:07:18.686Z,1021.43
2023-09-14T10:08:18.729Z,1021.42
2023-09-14T10:09:18.662Z,1021.45
2023-09-14T10:10:18.727Z,1021.43
2023-09-14T10:11:18.652Z,1021.40
2023-09-14T10:12:18.637Z,1021.41
2023-09-14T10:13:18.612Z,1021.39
2023-09-14T10:14:18.602Z,1021.39
2023-09-14T10:15:18.598Z,1021.37
2023-09-14T10:16:18.632Z,1021.39
2023-09-14T10:17:18.580Z,1021.39
2023-09-14T10:18:18.609Z,1021.39
2023-09-14T10:19:18.540Z,1021.38
2023-09-14T10:20:18.555Z,1021.34
2023-09-14T10:21:18.540Z,1021.35
2023-09-14T10:22:18.509Z,1021.34
2023-09-14T10:23:18.476Z,1021.34
2023-09-14T10:24:18.548Z,1021.35
2023-09-14T10:25:18.474Z,1021.35
2023-09-14T10:26:18.428Z,1021.35
2023-09-14T10:27:18.407Z,1021.32
2023-09-14T10:28:18.489Z,1021.31
2023-09-14T10:29:18.388Z,1021.32
2023-09-14T10:30:18.378Z,1021.34
2023-09-14T10:31:18.453Z,1021.34
2023-09-14T10:32:18.352Z,1021.27
2023-09-14T10:33:18.369Z,1021.30
2023-09-14T10:34:18.367Z,1021.31
2023-09-14T10:35:18.364Z,1021.27
2023-09-14T10:36:18.311Z,1021.24
2023-09-14T10:37:18.423Z,1021.30
2023-09-14T10:38:18.414Z,1021.29
2023-09-14T10:39:18.242Z,1021.26
2023-09-14T10:40:18.270Z,1021.30
2023-09-14T10:41:18.195Z,1021.26
2023-09-14T10:42:18.203Z,1021.31
2023-09-14T10:43:18.281Z,1021.27
2023-09-14T10:44:18.196Z,1021.25
2023-09-14T10:45:18.206Z,1021.27
2023-09-14T10:46:18.239Z,1021.25
2023-09-14T10:47:18.173Z,1021.24
2023-09-14T10:48:18.132Z,1021.25
2023-09-14T10:49:39.133Z,1021.21
2023-09-14T10:50:18.088Z,1021.20
2023-09-14T10:51:18.106Z,1021.23
2023-09-14T10:52:18.092Z,1021.21
2023-09-14T10:53:18.084Z,1021.22
2023-09-14T10:54:19.186Z,1021.22
2023-09-14T10:55:18.106Z,1021.18
2023-09-14T10:56:18.024Z,1021.19
2023-09-14T10:57:17.979Z,1021.19
2023-09-14T10:58:18.120Z,1021.23
2023-09-14T10:59:17.996Z,1021.22
2023-09-14T11:00:25.965Z,1021.25
2023-09-14T11:01:24.712Z,1021.22
2023-09-14T11:02:22.956Z,1021.24
2023-09-14T11:03:23.911Z,1021.22
2023-09-14T11:04:19.218Z,1021.23
2023-09-14T11:05:18.569Z,1021.22
2023-09-14T11:06:18.478Z,1021.22
2023-09-14T11:07:18.379Z,1021.19
2023-09-14T11:08:18.315Z,1021.19
2023-09-14T11:09:18.417Z,1021.16
2023-09-14T11:10:18.962Z,1021.17
2023-09-14T11:11:18.630Z,1021.16
2023-09-14T11:12:18.162Z,1021.18
2023-09-14T11:13:17.950Z,1021.16
2023-09-14T11:14:18.334Z,1021.17
2023-09-14T11:15:19.175Z,1021.21
2023-09-14T11:16:17.921Z,1021.18
2023-09-14T11:17:17.812Z,1021.17
2023-09-14T11:18:18.668Z,1021.17
2023-09-14T11:19:19.031Z,1021.13
2023-09-14T11:20:19.365Z,1021.11
2023-09-14T11:21:19.221Z,1021.14
2023-09-14T11:22:18.925Z,1021.15
2023-09-14T11:23:18.306Z,1021.15
2023-09-14T11:24:18.621Z,1021.13
2023-09-14T11:25:28.444Z,1021.08
2023-09-14T11:26:21.758Z,1021.05
2023-09-14T11:27:18.060Z,1021.08
2023-09-14T11:28:17.687Z,1021.08
2023-09-14T11:29:19.291Z,1021.05
2023-09-14T11:30:19.780Z,1021.06
2023-09-14T11:31:18.078Z,1020.98
2023-09-14T11:32:19.831Z,1021.04
2023-09-14T11:33:18.807Z,1021.05
2023-09-14T11:34:19.491Z,1021.05
2023-09-14T11:35:19.166Z,1021.04
2023-09-14T11:36:18.157Z,1021.03
2023-09-14T11:37:20.130Z,1021.00
2023-09-14T11:38:18.499Z,1021.02
2023-09-14T11:39:20.059Z,1021.04
2023-09-14T11:40:20.982Z,1021.01
2023-09-14T11:44:44.277Z,1021.01
2023-09-14T11:45:30.946Z,1021.06
2023-09-14T11:46:30.043Z,1021.05
2023-09-14T11:47:34.330Z,1021.05
2023-09-14T11:49:29.500Z,1021.03
2023-09-14T11:50:29.668Z,1021.04
2023-09-14T11:51:29.449Z,1021.04
2023-09-14T11:52:29.441Z,1020.98
2023-09-14T11:53:29.434Z,1021.02
2023-09-14T11:54:29.583Z,1021.01
2023-09-14T11:55:29.483Z,1021.00
2023-09-14T11:56:29.459Z,1020.98
2023-09-14T11:57:29.550Z,1021.01
2023-09-14T11:58:29.379Z,1020.99
2023-09-14T11:59:29.357Z,1021.02
2023-09-14T12:00:29.358Z,1021.03
2023-09-14T12:01:29.384Z,1021.01
2023-09-14T12:02:29.361Z,1020.98
2023-09-14T12:03:29.335Z,1020.98
2023-09-14T12:04:29.395Z,1021.01
2023-09-14T12:05:29.278Z,1020.97
2023-09-14T12:06:29.292Z,1020.97
2023-09-14T12:07:29.233Z,1021.00
2023-09-14T12:08:29.346Z,1021.00
2023-09-14T12:10:29.218Z,1020.97
2023-09-14T12:11:29.182Z,1021.01